Weather at London Gatwick Airport

Public forecast

Using degrees Celsius for public forecast. Weather courtesy of forecast.io.

Current aviation weather report (METAR) for London Gatwick Airport

Retrieved 2021/10/22 06:20 UTC (10 minutes ago):

EGKK 220620Z 22006KT CAVOK 06/03 Q1019

Aviation forecast (TAF) for London Gatwick Airport

Retrieved 2021/10/22 06:00 UTC (30 minutes ago):

TAF EGKK 220455Z 2206/2312 26009KT 9999 FEW045 PROB30 TEMPO 2213/2217 8000 -SHRA TEMPO 2300/2309 6000 PROB30 2302/2308 4000 BR